sensor_id;sensor_type;location;lat;lon;timestamp;temperature;humidity
11385;DHT22;5747;56.748;13.882;2023-08-06T00:00:26;9.10;99.90
11385;DHT22;5747;56.748;13.882;2023-08-06T00:02:55;8.90;99.90
11385;DHT22;5747;56.748;13.882;2023-08-06T00:05:23;8.70;99.90
11385;DHT22;5747;56.748;13.882;2023-08-06T00:07:51;8.80;99.90
11385;DHT22;5747;56.748;13.882;2023-08-06T00:10:21;8.90;99.90
11385;DHT22;5747;56.748;13.882;2023-08-06T00:12:49;8.90;99.90
11385;DHT22;5747;56.748;13.882;2023-08-06T00:15:17;9.00;99.90
11385;DHT22;5747;56.748;13.882;2023-08-06T00:17:46;8.90;99.90
11385;DHT22;5747;56.748;13.882;2023-08-06T00:20:14;8.70;99.90
11385;DHT22;5747;56.748;13.882;2023-08-06T00:22:42;8.80;99.90
11385;DHT22;5747;56.748;13.882;2023-08-06T00:25:10;8.80;99.90
11385;DHT22;5747;56.748;13.882;2023-08-06T00:27:40;8.70;99.90
11385;DHT22;5747;56.748;13.882;2023-08-06T00:30:08;8.70;99.90
11385;DHT22;5747;56.748;13.882;2023-08-06T00:32:36;8.50;99.90
11385;DHT22;5747;56.748;13.882;2023-08-06T00:35:05;8.60;99.90
11385;DHT22;5747;56.748;13.882;2023-08-06T00:37:34;8.70;99.90
11385;DHT22;5747;56.748;13.882;2023-08-06T00:40:02;8.70;99.90
11385;DHT22;5747;56.748;13.882;2023-08-06T00:42:30;8.70;99.90
11385;DHT22;5747;56.748;13.882;2023-08-06T00:45:00;8.60;99.90
11385;DHT22;5747;56.748;13.882;2023-08-06T00:47:28;8.60;99.90
11385;DHT22;5747;56.748;13.882;2023-08-06T00:49:57;8.60;99.90
11385;DHT22;5747;56.748;13.882;2023-08-06T00:52:25;8.50;99.90
11385;DHT22;5747;56.748;13.882;2023-08-06T00:54:53;8.50;99.90
11385;DHT22;5747;56.748;13.882;2023-08-06T00:57:24;8.50;99.90
11385;DHT22;5747;56.748;13.882;2023-08-06T00:59:53;8.50;99.90
11385;DHT22;5747;56.748;13.882;2023-08-06T01:02:23;8.60;99.90
11385;DHT22;5747;56.748;13.882;2023-08-06T01:04:51;8.60;99.90
11385;DHT22;5747;56.748;13.882;2023-08-06T01:07:29;8.60;99.90
11385;DHT22;5747;56.748;13.882;2023-08-06T01:10:15;8.50;99.90
11385;DHT22;5747;56.748;13.882;2023-08-06T01:12:51;8.40;99.90
11385;DHT22;5747;56.748;13.882;2023-08-06T01:15:23;8.40;99.90
11385;DHT22;5747;56.748;13.882;2023-08-06T01:17:53;8.60;99.90
11385;DHT22;5747;56.748;13.882;2023-08-06T01:20:28;8.50;99.90
11385;DHT22;5747;56.748;13.882;2023-08-06T01:22:57;8.50;99.90
11385;DHT22;5747;56.748;13.882;2023-08-06T01:25:29;8.50;99.90
11385;DHT22;5747;56.748;13.882;2023-08-06T01:28:03;8.50;99.90
11385;DHT22;5747;56.748;13.882;2023-08-06T01:30:33;8.30;99.90
11385;DHT22;5747;56.748;13.882;2023-08-06T01:33:05;8.30;99.90
11385;DHT22;5747;56.748;13.882;2023-08-06T01:35:37;8.20;99.90
11385;DHT22;5747;56.748;13.882;2023-08-06T01:38:06;8.20;99.90
11385;DHT22;5747;56.748;13.882;2023-08-06T01:40:34;8.10;99.90
11385;DHT22;5747;56.748;13.882;2023-08-06T01:43:02;8.10;99.90
11385;DHT22;5747;56.748;13.882;2023-08-06T01:45:30;8.10;99.90
11385;DHT22;5747;56.748;13.882;2023-08-06T01:47:58;8.00;99.90
11385;DHT22;5747;56.748;13.882;2023-08-06T01:50:26;8.00;99.90
11385;DHT22;5747;56.748;13.882;2023-08-06T01:52:56;7.90;99.90
11385;DHT22;5747;56.748;13.882;2023-08-06T01:55:24;8.00;99.90
11385;DHT22;5747;56.748;13.882;2023-08-06T01:57:52;7.90;99.90
11385;DHT22;5747;56.748;13.882;2023-08-06T02:00:20;7.90;99.90
11385;DHT22;5747;56.748;13.882;2023-08-06T02:02:48;7.80;99.90
11385;DHT22;5747;56.748;13.882;2023-08-06T02:05:17;7.80;99.90
11385;DHT22;5747;56.748;13.882;2023-08-06T02:07:45;7.90;99.90
11385;DHT22;5747;56.748;13.882;2023-08-06T02:10:14;7.90;99.90
11385;DHT22;5747;56.748;13.882;2023-08-06T02:12:42;7.80;99.90
11385;DHT22;5747;56.748;13.882;2023-08-06T02:15:11;7.80;99.90
11385;DHT22;5747;56.748;13.882;2023-08-06T02:17:39;7.80;99.90
11385;DHT22;5747;56.748;13.882;2023-08-06T02:20:08;7.80;99.90
11385;DHT22;5747;56.748;13.882;2023-08-06T02:22:36;7.70;99.90
11385;DHT22;5747;56.748;13.882;2023-08-06T02:25:05;7.70;99.90
11385;DHT22;5747;56.748;13.882;2023-08-06T02:27:34;7.70;99.90
11385;DHT22;5747;56.748;13.882;2023-08-06T02:30:03;7.70;99.90
11385;DHT22;5747;56.748;13.882;2023-08-06T02:32:31;7.70;99.90
11385;DHT22;5747;56.748;13.882;2023-08-06T02:35:02;7.70;99.90
11385;DHT22;5747;56.748;13.882;2023-08-06T02:37:33;7.70;99.90
11385;DHT22;5747;56.748;13.882;2023-08-06T02:40:01;7.60;99.90
11385;DHT22;5747;56.748;13.882;2023-08-06T02:42:30;7.60;99.90
11385;DHT22;5747;56.748;13.882;2023-08-06T02:44:59;7.60;99.90
11385;DHT22;5747;56.748;13.882;2023-08-06T02:47:28;7.60;99.90
11385;DHT22;5747;56.748;13.882;2023-08-06T02:49:56;7.60;99.90
11385;DHT22;5747;56.748;13.882;2023-08-06T02:52:24;7.60;99.90
11385;DHT22;5747;56.748;13.882;2023-08-06T02:54:53;7.50;99.90
11385;DHT22;5747;56.748;13.882;2023-08-06T02:57:21;7.40;99.90
11385;DHT22;5747;56.748;13.882;2023-08-06T02:59:51;7.40;99.90
11385;DHT22;5747;56.748;13.882;2023-08-06T03:02:23;7.50;99.90
11385;DHT22;5747;56.748;13.882;2023-08-06T03:05:08;7.50;99.90
11385;DHT22;5747;56.748;13.882;2023-08-06T03:07:41;7.50;99.90
11385;DHT22;5747;56.748;13.882;2023-08-06T03:10:16;7.50;99.90
11385;DHT22;5747;56.748;13.882;2023-08-06T03:12:44;7.70;99.90
11385;DHT22;5747;56.748;13.882;2023-08-06T03:15:12;7.70;99.90
11385;DHT22;5747;56.748;13.882;2023-08-06T03:17:44;7.70;99.90
11385;DHT22;5747;56.748;13.882;2023-08-06T03:20:13;7.70;99.90
11385;DHT22;5747;56.748;13.882;2023-08-06T03:22:42;7.70;99.90
11385;DHT22;5747;56.748;13.882;2023-08-06T03:25:10;7.60;99.90
11385;DHT22;5747;56.748;13.882;2023-08-06T03:27:42;7.60;99.90
11385;DHT22;5747;56.748;13.882;2023-08-06T03:30:12;7.60;99.90
11385;DHT22;5747;56.748;13.882;2023-08-06T03:32:40;7.60;99.90
11385;DHT22;5747;56.748;13.882;2023-08-06T03:35:10;7.60;99.90
11385;DHT22;5747;56.748;13.882;2023-08-06T03:37:38;7.60;99.90
11385;DHT22;5747;56.748;13.882;2023-08-06T03:40:08;7.70;99.90
11385;DHT22;5747;56.748;13.882;2023-08-06T03:42:36;7.70;99.90
11385;DHT22;5747;56.748;13.882;2023-08-06T03:45:06;7.80;99.90
11385;DHT22;5747;56.748;13.882;2023-08-06T03:47:35;7.80;99.90
11385;DHT22;5747;56.748;13.882;2023-08-06T03:50:04;7.80;99.90
11385;DHT22;5747;56.748;13.882;2023-08-06T03:52:34;7.90;99.90
11385;DHT22;5747;56.748;13.882;2023-08-06T03:55:02;8.00;99.90
11385;DHT22;5747;56.748;13.882;2023-08-06T03:57:31;8.00;99.90
11385;DHT22;5747;56.748;13.882;2023-08-06T03:59:59;8.10;99.90
11385;DHT22;5747;56.748;13.882;2023-08-06T04:02:28;8.10;99.90
11385;DHT22;5747;56.748;13.882;2023-08-06T04:04:57;8.20;99.90
11385;DHT22;5747;56.748;13.882;2023-08-06T04:07:26;8.30;99.90
11385;DHT22;5747;56.748;13.882;2023-08-06T04:09:57;8.30;99.90
11385;DHT22;5747;56.748;13.882;2023-08-06T04:12:25;8.50;99.90
11385;DHT22;5747;56.748;13.882;2023-08-06T04:14:54;8.60;99.90
11385;DHT22;5747;56.748;13.882;2023-08-06T04:17:22;8.70;99.90
11385;DHT22;5747;56.748;13.882;2023-08-06T04:19:51;8.70;99.90
11385;DHT22;5747;56.748;13.882;2023-08-06T04:22:20;8.90;99.90
11385;DHT22;5747;56.748;13.882;2023-08-06T04:24:49;8.90;99.90
11385;DHT22;5747;56.748;13.882;2023-08-06T04:27:19;9.00;99.90
11385;DHT22;5747;56.748;13.882;2023-08-06T04:29:48;9.10;99.90
11385;DHT22;5747;56.748;13.882;2023-08-06T04:32:17;9.10;99.90
11385;DHT22;5747;56.748;13.882;2023-08-06T04:34:50;9.20;99.90
11385;DHT22;5747;56.748;13.882;2023-08-06T04:37:18;9.20;99.90
11385;DHT22;5747;56.748;13.882;2023-08-06T04:39:46;9.30;99.90
11385;DHT22;5747;56.748;13.882;2023-08-06T04:42:15;9.40;99.90
11385;DHT22;5747;56.748;13.882;2023-08-06T04:44:44;9.40;99.90
11385;DHT22;5747;56.748;13.882;2023-08-06T04:47:14;9.50;99.90
11385;DHT22;5747;56.748;13.882;2023-08-06T04:49:44;9.60;99.90
11385;DHT22;5747;56.748;13.882;2023-08-06T04:52:12;9.60;99.90
11385;DHT22;5747;56.748;13.882;2023-08-06T04:54:40;9.70;99.90
11385;DHT22;5747;56.748;13.882;2023-08-06T04:57:08;9.80;99.90
11385;DHT22;5747;56.748;13.882;2023-08-06T04:59:37;9.80;99.90
11385;DHT22;5747;56.748;13.882;2023-08-06T05:02:06;9.90;99.90
11385;DHT22;5747;56.748;13.882;2023-08-06T05:04:34;10.00;99.90
11385;DHT22;5747;56.748;13.882;2023-08-06T05:07:03;10.00;99.90
11385;DHT22;5747;56.748;13.882;2023-08-06T05:09:31;10.20;99.90
11385;DHT22;5747;56.748;13.882;2023-08-06T05:12:01;10.20;99.90
11385;DHT22;5747;56.748;13.882;2023-08-06T05:14:29;10.30;99.90
11385;DHT22;5747;56.748;13.882;2023-08-06T05:16:58;10.40;99.90
11385;DHT22;5747;56.748;13.882;2023-08-06T05:19:27;10.50;99.90
11385;DHT22;5747;56.748;13.882;2023-08-06T05:21:55;10.60;99.90
11385;DHT22;5747;56.748;13.882;2023-08-06T05:24:23;10.80;99.90
11385;DHT22;5747;56.748;13.882;2023-08-06T05:26:51;10.90;99.90
11385;DHT22;5747;56.748;13.882;2023-08-06T05:29:20;11.10;99.90
11385;DHT22;5747;56.748;13.882;2023-08-06T05:31:48;11.30;99.90
11385;DHT22;5747;56.748;13.882;2023-08-06T05:34:16;11.50;99.90
11385;DHT22;5747;56.748;13.882;2023-08-06T05:36:45;11.70;99.90
11385;DHT22;5747;56.748;13.882;2023-08-06T05:39:13;11.90;99.90
11385;DHT22;5747;56.748;13.882;2023-08-06T05:41:42;12.00;99.90
11385;DHT22;5747;56.748;13.882;2023-08-06T05:44:10;12.10;99.90
11385;DHT22;5747;56.748;13.882;2023-08-06T05:46:38;12.30;99.90
11385;DHT22;5747;56.748;13.882;2023-08-06T05:49:06;12.40;99.90
11385;DHT22;5747;56.748;13.882;2023-08-06T05:51:34;12.40;99.90
11385;DHT22;5747;56.748;13.882;2023-08-06T05:54:03;12.60;99.90
11385;DHT22;5747;56.748;13.882;2023-08-06T05:56:32;12.70;99.90
11385;DHT22;5747;56.748;13.882;2023-08-06T05:59:00;12.80;99.90
11385;DHT22;5747;56.748;13.882;2023-08-06T06:01:28;12.90;99.90
11385;DHT22;5747;56.748;13.882;2023-08-06T06:03:56;13.00;99.90
11385;DHT22;5747;56.748;13.882;2023-08-06T06:06:24;13.00;99.90
11385;DHT22;5747;56.748;13.882;2023-08-06T06:08:52;12.90;99.90
11385;DHT22;5747;56.748;13.882;2023-08-06T06:11:22;13.00;99.90
11385;DHT22;5747;56.748;13.882;2023-08-06T06:13:51;13.00;99.90
11385;DHT22;5747;56.748;13.882;2023-08-06T06:16:19;13.10;99.90
11385;DHT22;5747;56.748;13.882;2023-08-06T06:18:47;13.20;99.90
11385;DHT22;5747;56.748;13.882;2023-08-06T06:21:16;13.40;99.90
11385;DHT22;5747;56.748;13.882;2023-08-06T06:23:44;13.50;99.90
11385;DHT22;5747;56.748;13.882;2023-08-06T06:26:12;13.70;99.90
11385;DHT22;5747;56.748;13.882;2023-08-06T06:28:42;13.80;99.90
11385;DHT22;5747;56.748;13.882;2023-08-06T06:31:10;13.90;99.90
11385;DHT22;5747;56.748;13.882;2023-08-06T06:33:38;14.00;99.90
11385;DHT22;5747;56.748;13.882;2023-08-06T06:36:06;14.10;99.90
11385;DHT22;5747;56.748;13.882;2023-08-06T06:38:36;14.30;99.90
11385;DHT22;5747;56.748;13.882;2023-08-06T06:41:04;14.40;99.90
11385;DHT22;5747;56.748;13.882;2023-08-06T06:43:32;14.40;99.90
11385;DHT22;5747;56.748;13.882;2023-08-06T06:46:02;14.50;99.90
11385;DHT22;5747;56.748;13.882;2023-08-06T06:48:32;14.60;99.90
11385;DHT22;5747;56.748;13.882;2023-08-06T06:51:00;14.60;99.90
11385;DHT22;5747;56.748;13.882;2023-08-06T06:53:29;14.70;99.90
11385;DHT22;5747;56.748;13.882;2023-08-06T06:56:02;14.90;99.90
11385;DHT22;5747;56.748;13.882;2023-08-06T06:58:30;15.10;99.90
11385;DHT22;5747;56.748;13.882;2023-08-06T07:00:58;15.10;99.90
11385;DHT22;5747;56.748;13.882;2023-08-06T07:03:28;15.20;99.90
11385;DHT22;5747;56.748;13.882;2023-08-06T07:05:57;15.20;99.90
11385;DHT22;5747;56.748;13.882;2023-08-06T07:08:26;15.30;99.90
11385;DHT22;5747;56.748;13.882;2023-08-06T07:11:00;15.50;99.90
11385;DHT22;5747;56.748;13.882;2023-08-06T07:13:29;15.50;99.90
11385;DHT22;5747;56.748;13.882;2023-08-06T07:15:58;15.50;99.90
11385;DHT22;5747;56.748;13.882;2023-08-06T07:18:27;15.70;99.90
11385;DHT22;5747;56.748;13.882;2023-08-06T07:20:56;15.80;99.90
11385;DHT22;5747;56.748;13.882;2023-08-06T07:23:25;15.80;99.90
11385;DHT22;5747;56.748;13.882;2023-08-06T07:25:53;15.80;99.90
11385;DHT22;5747;56.748;13.882;2023-08-06T07:28:21;15.80;99.90
11385;DHT22;5747;56.748;13.882;2023-08-06T07:30:49;15.80;99.90
11385;DHT22;5747;56.748;13.882;2023-08-06T07:33:18;15.90;99.90
11385;DHT22;5747;56.748;13.882;2023-08-06T07:35:47;16.10;99.90
11385;DHT22;5747;56.748;13.882;2023-08-06T07:38:15;16.20;99.90
11385;DHT22;5747;56.748;13.882;2023-08-06T07:40:44;16.30;99.90
11385;DHT22;5747;56.748;13.882;2023-08-06T07:43:12;16.40;99.90
11385;DHT22;5747;56.748;13.882;2023-08-06T07:45:40;16.50;99.90
11385;DHT22;5747;56.748;13.882;2023-08-06T07:48:08;16.50;99.90
11385;DHT22;5747;56.748;13.882;2023-08-06T07:50:37;16.50;99.90
11385;DHT22;5747;56.748;13.882;2023-08-06T07:53:06;16.50;99.90
11385;DHT22;5747;56.748;13.882;2023-08-06T07:55:35;16.70;99.90
11385;DHT22;5747;56.748;13.882;2023-08-06T07:58:03;16.70;99.90
11385;DHT22;5747;56.748;13.882;2023-08-06T08:00:31;16.60;99.90
11385;DHT22;5747;56.748;13.882;2023-08-06T08:03:00;16.60;99.90
11385;DHT22;5747;56.748;13.882;2023-08-06T08:05:28;16.60;99.90
11385;DHT22;5747;56.748;13.882;2023-08-06T08:07:56;16.40;99.90
11385;DHT22;5747;56.748;13.882;2023-08-06T08:10:26;16.60;99.90
11385;DHT22;5747;56.748;13.882;2023-08-06T08:12:54;16.50;99.90
11385;DHT22;5747;56.748;13.882;2023-08-06T08:15:22;16.50;99.90
11385;DHT22;5747;56.748;13.882;2023-08-06T08:17:50;16.50;99.90
11385;DHT22;5747;56.748;13.882;2023-08-06T08:20:19;16.50;99.90
11385;DHT22;5747;56.748;13.882;2023-08-06T08:22:48;16.40;99.90
11385;DHT22;5747;56.748;13.882;2023-08-06T08:25:16;16.40;99.90
11385;DHT22;5747;56.748;13.882;2023-08-06T08:27:46;16.50;99.90
11385;DHT22;5747;56.748;13.882;2023-08-06T08:30:14;16.60;99.90
11385;DHT22;5747;56.748;13.882;2023-08-06T08:32:42;16.70;99.90
11385;DHT22;5747;56.748;13.882;2023-08-06T08:35:11;16.70;99.90
11385;DHT22;5747;56.748;13.882;2023-08-06T08:37:39;16.70;99.90
11385;DHT22;5747;56.748;13.882;2023-08-06T08:40:08;16.90;99.90
11385;DHT22;5747;56.748;13.882;2023-08-06T08:42:37;17.00;99.90
11385;DHT22;5747;56.748;13.882;2023-08-06T08:45:12;17.00;99.90
11385;DHT22;5747;56.748;13.882;2023-08-06T08:47:41;16.90;99.90
11385;DHT22;5747;56.748;13.882;2023-08-06T08:50:11;16.90;99.90
11385;DHT22;5747;56.748;13.882;2023-08-06T08:52:40;17.00;99.90
11385;DHT22;5747;56.748;13.882;2023-08-06T08:55:09;17.20;99.90
11385;DHT22;5747;56.748;13.882;2023-08-06T08:57:37;17.40;99.90
11385;DHT22;5747;56.748;13.882;2023-08-06T09:00:08;17.50;99.90
11385;DHT22;5747;56.748;13.882;2023-08-06T09:02:38;17.50;99.90
11385;DHT22;5747;56.748;13.882;2023-08-06T09:05:07;17.70;99.90
11385;DHT22;5747;56.748;13.882;2023-08-06T09:07:41;17.80;99.90
11385;DHT22;5747;56.748;13.882;2023-08-06T09:10:11;17.80;99.90
11385;DHT22;5747;56.748;13.882;2023-08-06T09:12:41;17.70;99.90
11385;DHT22;5747;56.748;13.882;2023-08-06T09:15:11;17.50;99.90
11385;DHT22;5747;56.748;13.882;2023-08-06T09:17:40;17.50;99.90
11385;DHT22;5747;56.748;13.882;2023-08-06T09:20:13;17.50;99.90
11385;DHT22;5747;56.748;13.882;2023-08-06T09:22:41;17.50;99.90
11385;DHT22;5747;56.748;13.882;2023-08-06T09:25:11;17.60;99.90
11385;DHT22;5747;56.748;13.882;2023-08-06T09:27:41;17.50;99.90
11385;DHT22;5747;56.748;13.882;2023-08-06T09:30:28;17.50;99.90
11385;DHT22;5747;56.748;13.882;2023-08-06T09:32:57;17.40;99.90
11385;DHT22;5747;56.748;13.882;2023-08-06T09:35:28;17.20;99.90
11385;DHT22;5747;56.748;13.882;2023-08-06T09:38:05;17.30;99.90
11385;DHT22;5747;56.748;13.882;2023-08-06T09:40:35;17.30;99.90
11385;DHT22;5747;56.748;13.882;2023-08-06T09:43:03;17.30;99.90
11385;DHT22;5747;56.748;13.882;2023-08-06T09:45:35;17.20;99.90
11385;DHT22;5747;56.748;13.882;2023-08-06T09:48:04;17.10;99.90
11385;DHT22;5747;56.748;13.882;2023-08-06T09:50:35;17.10;99.90
11385;DHT22;5747;56.748;13.882;2023-08-06T09:53:05;17.10;99.90
11385;DHT22;5747;56.748;13.882;2023-08-06T09:55:33;17.10;99.90
11385;DHT22;5747;56.748;13.882;2023-08-06T09:58:02;17.10;99.90
11385;DHT22;5747;56.748;13.882;2023-08-06T10:00:33;17.20;99.90
11385;DHT22;5747;56.748;13.882;2023-08-06T10:03:06;17.30;99.90
11385;DHT22;5747;56.748;13.882;2023-08-06T10:05:36;17.20;99.90
11385;DHT22;5747;56.748;13.882;2023-08-06T10:08:06;17.20;99.90
11385;DHT22;5747;56.748;13.882;2023-08-06T10:10:34;17.00;99.90
11385;DHT22;5747;56.748;13.882;2023-08-06T10:13:04;16.80;99.90
11385;DHT22;5747;56.748;13.882;2023-08-06T10:15:36;16.70;99.90
11385;DHT22;5747;56.748;13.882;2023-08-06T10:18:06;16.60;99.90
11385;DHT22;5747;56.748;13.882;2023-08-06T10:20:35;16.60;99.90
11385;DHT22;5747;56.748;13.882;2023-08-06T10:23:04;16.50;99.90
11385;DHT22;5747;56.748;13.882;2023-08-06T10:25:33;16.40;99.90
11385;DHT22;5747;56.748;13.882;2023-08-06T10:28:07;16.40;99.90
11385;DHT22;5747;56.748;13.882;2023-08-06T10:30:43;16.30;99.90
11385;DHT22;5747;56.748;13.882;2023-08-06T10:33:12;16.30;99.90
11385;DHT22;5747;56.748;13.882;2023-08-06T10:35:43;16.30;99.90
11385;DHT22;5747;56.748;13.882;2023-08-06T10:38:13;16.20;99.90
11385;DHT22;5747;56.748;13.882;2023-08-06T10:40:48;15.90;99.90
11385;DHT22;5747;56.748;13.882;2023-08-06T10:43:25;15.60;99.90
11385;DHT22;5747;56.748;13.882;2023-08-06T10:45:56;15.40;99.90
11385;DHT22;5747;56.748;13.882;2023-08-06T10:48:38;15.10;99.90
11385;DHT22;5747;56.748;13.882;2023-08-06T10:51:08;14.90;99.90
11385;DHT22;5747;56.748;13.882;2023-08-06T10:53:37;14.80;99.90
11385;DHT22;5747;56.748;13.882;2023-08-06T10:56:12;14.70;99.90
11385;DHT22;5747;56.748;13.882;2023-08-06T10:58:41;14.50;99.90
11385;DHT22;5747;56.748;13.882;2023-08-06T11:01:11;14.40;99.90
11385;DHT22;5747;56.748;13.882;2023-08-06T11:03:41;14.30;99.90
11385;DHT22;5747;56.748;13.882;2023-08-06T11:06:09;14.30;99.90
11385;DHT22;5747;56.748;13.882;2023-08-06T11:08:40;14.30;99.90
11385;DHT22;5747;56.748;13.882;2023-08-06T11:11:09;14.40;99.90
11385;DHT22;5747;56.748;13.882;2023-08-06T11:13:38;14.50;99.90
11385;DHT22;5747;56.748;13.882;2023-08-06T11:16:06;14.50;99.90
11385;DHT22;5747;56.748;13.882;2023-08-06T11:18:36;14.70;99.90
11385;DHT22;5747;56.748;13.882;2023-08-06T11:21:04;14.70;99.90
11385;DHT22;5747;56.748;13.882;2023-08-06T11:23:32;14.70;99.90
11385;DHT22;5747;56.748;13.882;2023-08-06T11:26:00;14.70;99.90
11385;DHT22;5747;56.748;13.882;2023-08-06T11:28:28;14.70;99.90
11385;DHT22;5747;56.748;13.882;2023-08-06T11:30:58;14.80;99.90
11385;DHT22;5747;56.748;13.882;2023-08-06T11:33:29;14.90;99.90
11385;DHT22;5747;56.748;13.882;2023-08-06T11:35:59;14.90;99.90
11385;DHT22;5747;56.748;13.882;2023-08-06T11:38:29;14.90;99.90
11385;DHT22;5747;56.748;13.882;2023-08-06T11:40:57;14.90;99.90
11385;DHT22;5747;56.748;13.882;2023-08-06T11:43:25;14.90;99.90
11385;DHT22;5747;56.748;13.882;2023-08-06T11:45:56;14.80;99.90
11385;DHT22;5747;56.748;13.882;2023-08-06T11:48:25;14.80;99.90
11385;DHT22;5747;56.748;13.882;2023-08-06T11:50:54;14.80;99.90
11385;DHT22;5747;56.748;13.882;2023-08-06T11:53:27;14.80;99.90
11385;DHT22;5747;56.748;13.882;2023-08-06T11:55:56;14.80;99.90
11385;DHT22;5747;56.748;13.882;2023-08-06T11:58:24;14.70;99.90
11385;DHT22;5747;56.748;13.882;2023-08-06T12:00:52;14.70;99.90
11385;DHT22;5747;56.748;13.882;2023-08-06T12:03:23;14.60;99.90
11385;DHT22;5747;56.748;13.882;2023-08-06T12:05:54;14.50;99.90
11385;DHT22;5747;56.748;13.882;2023-08-06T12:08:27;14.40;99.90
11385;DHT22;5747;56.748;13.882;2023-08-06T12:10:56;14.30;99.90
11385;DHT22;5747;56.748;13.882;2023-08-06T12:13:24;14.30;99.90
11385;DHT22;5747;56.748;13.882;2023-08-06T12:15:54;14.20;99.90
11385;DHT22;5747;56.748;13.882;2023-08-06T12:18:24;14.10;99.90
11385;DHT22;5747;56.748;13.882;2023-08-06T12:20:52;14.00;99.90
11385;DHT22;5747;56.748;13.882;2023-08-06T12:23:20;14.00;99.90
11385;DHT22;5747;56.748;13.882;2023-08-06T12:25:50;14.00;99.90
11385;DHT22;5747;56.748;13.882;2023-08-06T12:28:18;14.00;99.90
11385;DHT22;5747;56.748;13.882;2023-08-06T12:30:49;14.00;99.90
11385;DHT22;5747;56.748;13.882;2023-08-06T12:33:18;14.10;99.90
11385;DHT22;5747;56.748;13.882;2023-08-06T12:35:46;14.10;99.90
11385;DHT22;5747;56.748;13.882;2023-08-06T12:38:14;14.10;99.90
11385;DHT22;5747;56.748;13.882;2023-08-06T12:40:42;14.00;99.90
11385;DHT22;5747;56.748;13.882;2023-08-06T12:43:12;14.00;99.90
11385;DHT22;5747;56.748;13.882;2023-08-06T12:45:41;14.00;99.90
11385;DHT22;5747;56.748;13.882;2023-08-06T12:48:09;14.00;99.90
11385;DHT22;5747;56.748;13.882;2023-08-06T12:50:37;14.00;99.90
11385;DHT22;5747;56.748;13.882;2023-08-06T12:53:05;14.00;99.90
11385;DHT22;5747;56.748;13.882;2023-08-06T12:55:33;14.00;99.90
11385;DHT22;5747;56.748;13.882;2023-08-06T12:58:01;13.90;99.90
11385;DHT22;5747;56.748;13.882;2023-08-06T13:00:31;13.90;99.90
11385;DHT22;5747;56.748;13.882;2023-08-06T13:02:59;13.80;99.90
11385;DHT22;5747;56.748;13.882;2023-08-06T13:05:27;13.80;99.90
11385;DHT22;5747;56.748;13.882;2023-08-06T13:07:55;13.80;99.90
11385;DHT22;5747;56.748;13.882;2023-08-06T13:10:23;13.70;99.90
11385;DHT22;5747;56.748;13.882;2023-08-06T13:12:52;13.80;99.90
11385;DHT22;5747;56.748;13.882;2023-08-06T13:15:21;13.70;99.90
11385;DHT22;5747;56.748;13.882;2023-08-06T13:17:50;13.70;99.90
11385;DHT22;5747;56.748;13.882;2023-08-06T13:20:18;13.70;99.90
11385;DHT22;5747;56.748;13.882;2023-08-06T13:22:47;13.60;99.90
11385;DHT22;5747;56.748;13.882;2023-08-06T13:25:18;13.60;99.90
11385;DHT22;5747;56.748;13.882;2023-08-06T13:27:46;13.60;99.90
11385;DHT22;5747;56.748;13.882;2023-08-06T13:30:15;13.70;99.90
11385;DHT22;5747;56.748;13.882;2023-08-06T13:32:44;13.70;99.90
11385;DHT22;5747;56.748;13.882;2023-08-06T13:35:14;13.70;99.90
11385;DHT22;5747;56.748;13.882;2023-08-06T13:37:42;13.60;99.90
11385;DHT22;5747;56.748;13.882;2023-08-06T13:40:11;13.60;99.90
11385;DHT22;5747;56.748;13.882;2023-08-06T13:42:39;13.60;99.90
11385;DHT22;5747;56.748;13.882;2023-08-06T13:45:08;13.50;99.90
11385;DHT22;5747;56.748;13.882;2023-08-06T13:47:36;13.50;99.90
11385;DHT22;5747;56.748;13.882;2023-08-06T13:50:05;13.50;99.90
11385;DHT22;5747;56.748;13.882;2023-08-06T13:52:44;13.40;99.90
11385;DHT22;5747;56.748;13.882;2023-08-06T13:55:12;13.40;99.90
11385;DHT22;5747;56.748;13.882;2023-08-06T13:57:40;13.40;99.90
11385;DHT22;5747;56.748;13.882;2023-08-06T14:00:09;13.40;99.90
11385;DHT22;5747;56.748;13.882;2023-08-06T14:02:41;13.40;99.90
11385;DHT22;5747;56.748;13.882;2023-08-06T14:05:12;13.40;99.90
11385;DHT22;5747;56.748;13.882;2023-08-06T14:07:40;13.40;99.90
11385;DHT22;5747;56.748;13.882;2023-08-06T14:10:10;13.30;99.90
11385;DHT22;5747;56.748;13.882;2023-08-06T14:12:38;13.30;99.90
11385;DHT22;5747;56.748;13.882;2023-08-06T14:15:07;13.30;99.90
11385;DHT22;5747;56.748;13.882;2023-08-06T14:17:35;13.10;99.90
11385;DHT22;5747;56.748;13.882;2023-08-06T14:20:04;13.10;99.90
11385;DHT22;5747;56.748;13.882;2023-08-06T14:22:34;13.00;99.90
11385;DHT22;5747;56.748;13.882;2023-08-06T14:25:03;12.80;99.90
11385;DHT22;5747;56.748;13.882;2023-08-06T14:27:32;12.70;99.90
11385;DHT22;5747;56.748;13.882;2023-08-06T14:30:01;12.60;99.90
11385;DHT22;5747;56.748;13.882;2023-08-06T14:32:30;12.60;99.90
11385;DHT22;5747;56.748;13.882;2023-08-06T14:34:58;12.50;99.90
11385;DHT22;5747;56.748;13.882;2023-08-06T14:37:26;12.30;99.90
11385;DHT22;5747;56.748;13.882;2023-08-06T14:39:54;12.20;99.90
11385;DHT22;5747;56.748;13.882;2023-08-06T14:42:23;12.00;99.90
11385;DHT22;5747;56.748;13.882;2023-08-06T14:44:52;12.00;99.90
11385;DHT22;5747;56.748;13.882;2023-08-06T14:47:20;12.00;99.90
11385;DHT22;5747;56.748;13.882;2023-08-06T14:49:48;12.00;99.90
11385;DHT22;5747;56.748;13.882;2023-08-06T14:52:17;12.00;99.90
11385;DHT22;5747;56.748;13.882;2023-08-06T14:54:46;12.00;99.90
11385;DHT22;5747;56.748;13.882;2023-08-06T14:57:14;12.00;99.90
11385;DHT22;5747;56.748;13.882;2023-08-06T14:59:42;12.00;99.90
11385;DHT22;5747;56.748;13.882;2023-08-06T15:02:11;12.00;99.90
11385;DHT22;5747;56.748;13.882;2023-08-06T15:04:39;12.00;99.90
11385;DHT22;5747;56.748;13.882;2023-08-06T15:07:08;12.00;99.90
11385;DHT22;5747;56.748;13.882;2023-08-06T15:09:36;12.10;99.90
11385;DHT22;5747;56.748;13.882;2023-08-06T15:12:24;12.10;99.90
11385;DHT22;5747;56.748;13.882;2023-08-06T15:14:52;12.20;99.90
11385;DHT22;5747;56.748;13.882;2023-08-06T15:17:25;12.20;99.90
11385;DHT22;5747;56.748;13.882;2023-08-06T15:19:55;12.20;99.90
11385;DHT22;5747;56.748;13.882;2023-08-06T15:22:23;12.10;99.90
11385;DHT22;5747;56.748;13.882;2023-08-06T15:24:51;12.10;99.90
11385;DHT22;5747;56.748;13.882;2023-08-06T15:27:19;12.00;99.90
11385;DHT22;5747;56.748;13.882;2023-08-06T15:29:47;12.00;99.90
11385;DHT22;5747;56.748;13.882;2023-08-06T15:32:15;12.00;99.90
11385;DHT22;5747;56.748;13.882;2023-08-06T15:34:45;12.00;99.90
11385;DHT22;5747;56.748;13.882;2023-08-06T15:37:14;11.90;99.90
11385;DHT22;5747;56.748;13.882;2023-08-06T15:39:42;11.90;99.90
11385;DHT22;5747;56.748;13.882;2023-08-06T15:42:10;11.90;99.90
11385;DHT22;5747;56.748;13.882;2023-08-06T15:44:39;11.90;99.90
11385;DHT22;5747;56.748;13.882;2023-08-06T15:47:07;11.80;99.90